sensor_id;sensor_type;location;lat;lon;timestamp;pressure;altitude;pressure_sealevel;temperature;humidity
37904;BME280;23738;50.422;18.758;2022-09-09T00:02:40;98152.00;;;17.96;81.95
37904;BME280;23738;50.422;18.758;2022-09-09T00:04:32;98150.13;;;17.94;81.80
37904;BME280;23738;50.422;18.758;2022-09-09T00:07:12;98159.77;;;17.95;81.80
37904;BME280;23738;50.422;18.758;2022-09-09T00:10:03;98152.80;;;17.94;81.73
37904;BME280;23738;50.422;18.758;2022-09-09T00:15:55;98152.83;;;17.99;81.87
37904;BME280;23738;50.422;18.758;2022-09-09T00:21:30;98160.02;;;17.93;81.38
37904;BME280;23738;50.422;18.758;2022-09-09T00:23:57;98157.84;;;17.90;81.38
37904;BME280;23738;50.422;18.758;2022-09-09T00:26:32;98167.78;;;17.95;81.53
37904;BME280;23738;50.422;18.758;2022-09-09T00:29:33;98160.57;;;17.98;81.29
37904;BME280;23738;50.422;18.758;2022-09-09T00:32:14;98162.16;;;17.96;80.94
37904;BME280;23738;50.422;18.758;2022-09-09T00:34:51;98167.75;;;17.92;80.82
37904;BME280;23738;50.422;18.758;2022-09-09T00:37:24;98166.91;;;17.89;80.62
37904;BME280;23738;50.422;18.758;2022-09-09T00:39:53;98166.91;;;17.87;80.59
37904;BME280;23738;50.422;18.758;2022-09-09T00:42:33;98164.45;;;17.83;80.54
37904;BME280;23738;50.422;18.758;2022-09-09T00:47:51;98170.27;;;17.75;80.31
37904;BME280;23738;50.422;18.758;2022-09-09T00:50:45;98166.75;;;17.69;80.30
37904;BME280;23738;50.422;18.758;2022-09-09T00:53:36;98168.59;;;17.66;80.20
37904;BME280;23738;50.422;18.758;2022-09-09T00:56:09;98169.64;;;17.63;80.23
37904;BME280;23738;50.422;18.758;2022-09-09T00:58:47;98176.53;;;17.61;80.05
37904;BME280;23738;50.422;18.758;2022-09-09T01:01:12;98180.22;;;17.57;80.04
37904;BME280;23738;50.422;18.758;2022-09-09T01:03:43;98186.37;;;17.55;79.92
37904;BME280;23738;50.422;18.758;2022-09-09T01:06:31;98187.42;;;17.54;80.00
37904;BME280;23738;50.422;18.758;2022-09-09T01:12:16;98187.00;;;17.63;80.47
37904;BME280;23738;50.422;18.758;2022-09-09T01:15:24;98184.64;;;17.69;80.51
37904;BME280;23738;50.422;18.758;2022-09-09T01:21:06;98191.28;;;17.66;80.25
37904;BME280;23738;50.422;18.758;2022-09-09T01:26:46;98194.14;;;17.59;80.24
37904;BME280;23738;50.422;18.758;2022-09-09T01:29:16;98199.72;;;17.55;80.15
37904;BME280;23738;50.422;18.758;2022-09-09T01:34:25;98202.35;;;17.53;80.02
37904;BME280;23738;50.422;18.758;2022-09-09T01:37:11;98202.08;;;17.52;80.15
37904;BME280;23738;50.422;18.758;2022-09-09T01:39:36;98200.49;;;17.53;80.01
37904;BME280;23738;50.422;18.758;2022-09-09T01:42:05;98200.42;;;17.48;79.77
37904;BME280;23738;50.422;18.758;2022-09-09T01:44:32;98200.38;;;17.43;79.64
37904;BME280;23738;50.422;18.758;2022-09-09T01:47:00;98196.61;;;17.39;79.65
37904;BME280;23738;50.422;18.758;2022-09-09T01:49:26;98205.60;;;17.33;79.45
37904;BME280;23738;50.422;18.758;2022-09-09T01:51:53;98207.66;;;17.26;79.51
37904;BME280;23738;50.422;18.758;2022-09-09T01:54:23;98212.19;;;17.23;79.49
37904;BME280;23738;50.422;18.758;2022-09-09T01:56:56;98217.20;;;17.19;79.40
37904;BME280;23738;50.422;18.758;2022-09-09T01:59:52;98211.86;;;17.19;79.63
37904;BME280;23738;50.422;18.758;2022-09-09T02:02:44;98217.73;;;17.19;79.53
37904;BME280;23738;50.422;18.758;2022-09-09T02:05:11;98216.63;;;17.15;79.45
37904;BME280;23738;50.422;18.758;2022-09-09T02:07:49;98217.44;;;17.15;79.65
37904;BME280;23738;50.422;18.758;2022-09-09T02:10:24;98217.16;;;17.17;79.66
37904;BME280;23738;50.422;18.758;2022-09-09T02:13:14;98215.01;;;17.14;79.64
37904;BME280;23738;50.422;18.758;2022-09-09T02:16:04;98214.73;;;17.13;79.74
37904;BME280;23738;50.422;18.758;2022-09-09T02:18:41;98220.83;;;17.11;79.83
37904;BME280;23738;50.422;18.758;2022-09-09T02:21:13;98226.13;;;17.06;80.09
37904;BME280;23738;50.422;18.758;2022-09-09T02:23:41;98221.06;;;17.07;80.37
37904;BME280;23738;50.422;18.758;2022-09-09T02:26:10;98222.73;;;17.13;80.67
37904;BME280;23738;50.422;18.758;2022-09-09T02:28:39;98225.69;;;17.14;80.71
37904;BME280;23738;50.422;18.758;2022-09-09T02:31:07;98227.27;;;17.12;80.68
37904;BME280;23738;50.422;18.758;2022-09-09T02:33:38;98235.23;;;17.10;80.80
37904;BME280;23738;50.422;18.758;2022-09-09T02:36:08;98240.56;;;17.10;80.99
37904;BME280;23738;50.422;18.758;2022-09-09T02:38:39;98243.76;;;17.09;80.48
37904;BME280;23738;50.422;18.758;2022-09-09T02:41:06;98245.52;;;17.01;81.20
37904;BME280;23738;50.422;18.758;2022-09-09T02:43:34;98247.14;;;17.02;81.52
37904;BME280;23738;50.422;18.758;2022-09-09T02:49:01;98250.42;;;17.07;81.51
37904;BME280;23738;50.422;18.758;2022-09-09T02:51:39;98250.43;;;17.09;81.67
37904;BME280;23738;50.422;18.758;2022-09-09T02:54:26;98252.33;;;17.11;81.77
37904;BME280;23738;50.422;18.758;2022-09-09T02:56:53;98252.58;;;17.10;81.87
37904;BME280;23738;50.422;18.758;2022-09-09T02:59:22;98249.42;;;17.13;81.93
37904;BME280;23738;50.422;18.758;2022-09-09T03:01:49;98247.33;;;17.17;81.96
37904;BME280;23738;50.422;18.758;2022-09-09T03:04:14;98248.14;;;17.18;81.91
37904;BME280;23738;50.422;18.758;2022-09-09T03:06:40;98252.94;;;17.16;81.71
37904;BME280;23738;50.422;18.758;2022-09-09T03:09:06;98253.42;;;17.13;81.83
37904;BME280;23738;50.422;18.758;2022-09-09T03:11:33;98256.94;;;17.16;82.11
37904;BME280;23738;50.422;18.758;2022-09-09T03:13:58;98255.91;;;17.19;82.04
37904;BME280;23738;50.422;18.758;2022-09-09T03:16:24;98250.80;;;17.15;81.96
37904;BME280;23738;50.422;18.758;2022-09-09T03:18:50;98259.86;;;17.17;81.96
37904;BME280;23738;50.422;18.758;2022-09-09T03:21:16;98256.39;;;17.16;81.95
37904;BME280;23738;50.422;18.758;2022-09-09T03:23:41;98260.44;;;17.19;82.06
37904;BME280;23738;50.422;18.758;2022-09-09T03:26:07;98259.95;;;17.22;82.15
37904;BME280;23738;50.422;18.758;2022-09-09T03:28:33;98260.77;;;17.25;82.21
37904;BME280;23738;50.422;18.758;2022-09-09T03:31:05;98261.09;;;17.29;82.14
37904;BME280;23738;50.422;18.758;2022-09-09T03:33:30;98257.09;;;17.29;81.93
37904;BME280;23738;50.422;18.758;2022-09-09T03:35:57;98261.05;;;17.26;81.94
37904;BME280;23738;50.422;18.758;2022-09-09T03:38:24;98261.58;;;17.26;81.95
37904;BME280;23738;50.422;18.758;2022-09-09T03:40:52;98269.57;;;17.23;81.97
37904;BME280;23738;50.422;18.758;2022-09-09T03:43:22;98266.09;;;17.23;81.88
37904;BME280;23738;50.422;18.758;2022-09-09T03:45:51;98262.86;;;17.20;81.83
37904;BME280;23738;50.422;18.758;2022-09-09T03:48:19;98270.58;;;17.19;81.68
37904;BME280;23738;50.422;18.758;2022-09-09T03:50:50;98273.20;;;17.17;81.72
37904;BME280;23738;50.422;18.758;2022-09-09T03:53:17;98275.87;;;17.14;81.73
37904;BME280;23738;50.422;18.758;2022-09-09T03:55:49;98286.30;;;17.16;81.92
37904;BME280;23738;50.422;18.758;2022-09-09T03:58:18;98282.03;;;17.17;81.86
37904;BME280;23738;50.422;18.758;2022-09-09T04:00:55;98287.36;;;17.17;81.85
37904;BME280;23738;50.422;18.758;2022-09-09T04:03:22;98287.84;;;17.12;81.77
37904;BME280;23738;50.422;18.758;2022-09-09T04:05:51;98286.22;;;17.11;81.91
37904;BME280;23738;50.422;18.758;2022-09-09T04:08:21;98291.31;;;17.12;81.98
37904;BME280;23738;50.422;18.758;2022-09-09T04:10:49;98289.41;;;17.10;82.04
37904;BME280;23738;50.422;18.758;2022-09-09T04:13:16;98278.49;;;17.12;82.03
37904;BME280;23738;50.422;18.758;2022-09-09T04:15:44;98285.94;;;17.10;81.92
37904;BME280;23738;50.422;18.758;2022-09-09T04:18:21;98292.06;;;17.08;81.88
37904;BME280;23738;50.422;18.758;2022-09-09T04:20:48;98291.16;;;17.00;81.69
37904;BME280;23738;50.422;18.758;2022-09-09T04:23:16;98285.45;;;16.94;81.83
37904;BME280;23738;50.422;18.758;2022-09-09T04:25:46;98277.44;;;16.94;82.01
37904;BME280;23738;50.422;18.758;2022-09-09T04:28:17;98285.53;;;16.99;82.04
37904;BME280;23738;50.422;18.758;2022-09-09T04:30:45;98281.77;;;16.97;81.92
37904;BME280;23738;50.422;18.758;2022-09-09T04:33:11;98287.88;;;16.95;81.79
37904;BME280;23738;50.422;18.758;2022-09-09T04:35:38;98291.06;;;16.95;81.93
37904;BME280;23738;50.422;18.758;2022-09-09T04:38:05;98291.92;;;16.98;81.98
37904;BME280;23738;50.422;18.758;2022-09-09T04:40:35;98291.68;;;16.99;81.97
37904;BME280;23738;50.422;18.758;2022-09-09T04:43:02;98295.70;;;17.02;81.89
37904;BME280;23738;50.422;18.758;2022-09-09T04:45:30;98285.31;;;17.03;81.82
37904;BME280;23738;50.422;18.758;2022-09-09T04:47:56;98289.27;;;17.00;81.64
37904;BME280;23738;50.422;18.758;2022-09-09T04:50:22;98295.40;;;16.98;81.73
37904;BME280;23738;50.422;18.758;2022-09-09T04:52:48;98290.34;;;16.99;81.82
37904;BME280;23738;50.422;18.758;2022-09-09T04:55:14;98293.03;;;17.02;81.85
37904;BME280;23738;50.422;18.758;2022-09-09T04:57:40;98294.08;;;17.01;81.76
37904;BME280;23738;50.422;18.758;2022-09-09T05:00:07;98300.73;;;16.98;81.59
37904;BME280;23738;50.422;18.758;2022-09-09T05:02:39;98299.88;;;16.95;81.44
37904;BME280;23738;50.422;18.758;2022-09-09T05:05:06;98305.44;;;16.91;81.34
37904;BME280;23738;50.422;18.758;2022-09-09T05:07:32;98305.11;;;16.88;81.29
37904;BME280;23738;50.422;18.758;2022-09-09T05:09:58;98302.25;;;16.92;81.50
37904;BME280;23738;50.422;18.758;2022-09-09T05:12:24;98302.31;;;16.97;81.34
37904;BME280;23738;50.422;18.758;2022-09-09T05:14:53;98304.27;;;17.04;81.41
37904;BME280;23738;50.422;18.758;2022-09-09T05:17:19;98299.27;;;17.07;81.23
37904;BME280;23738;50.422;18.758;2022-09-09T05:19:45;98305.95;;;17.10;81.35
37904;BME280;23738;50.422;18.758;2022-09-09T05:22:11;98308.70;;;17.15;81.28
37904;BME280;23738;50.422;18.758;2022-09-09T05:24:37;98305.52;;;17.15;81.34
37904;BME280;23738;50.422;18.758;2022-09-09T05:27:04;98313.87;;;17.24;81.42
37904;BME280;23738;50.422;18.758;2022-09-09T05:29:32;98314.20;;;17.28;81.33
37904;BME280;23738;50.422;18.758;2022-09-09T05:31:59;98318.02;;;17.34;81.50
37904;BME280;23738;50.422;18.758;2022-09-09T05:34:25;98321.06;;;17.43;81.37
37904;BME280;23738;50.422;18.758;2022-09-09T05:36:51;98320.05;;;17.46;81.49
37904;BME280;23738;50.422;18.758;2022-09-09T05:39:18;98328.16;;;17.56;81.47
37904;BME280;23738;50.422;18.758;2022-09-09T05:41:44;98317.88;;;17.63;81.44
37904;BME280;23738;50.422;18.758;2022-09-09T05:44:09;98322.25;;;17.71;81.42
37904;BME280;23738;50.422;18.758;2022-09-09T05:46:35;98319.83;;;17.72;81.22
37904;BME280;23738;50.422;18.758;2022-09-09T05:49:02;98320.18;;;17.78;81.37
37904;BME280;23738;50.422;18.758;2022-09-09T05:51:29;98325.41;;;17.92;81.40
37904;BME280;23738;50.422;18.758;2022-09-09T05:53:58;98324.47;;;18.06;81.47
37904;BME280;23738;50.422;18.758;2022-09-09T05:56:26;98327.77;;;18.16;81.23
37904;BME280;23738;50.422;18.758;2022-09-09T05:58:54;98330.52;;;18.23;81.22
37904;BME280;23738;50.422;18.758;2022-09-09T06:01:25;98334.38;;;18.38;81.27
37904;BME280;23738;50.422;18.758;2022-09-09T06:03:52;98326.77;;;18.51;81.03
37904;BME280;23738;50.422;18.758;2022-09-09T06:06:21;98331.12;;;18.57;80.87
37904;BME280;23738;50.422;18.758;2022-09-09T06:08:54;98316.69;;;18.61;80.65
37904;BME280;23738;50.422;18.758;2022-09-09T06:11:27;98332.73;;;18.61;80.54
37904;BME280;23738;50.422;18.758;2022-09-09T06:13:56;98323.70;;;18.69;80.70
37904;BME280;23738;50.422;18.758;2022-09-09T06:16:24;98320.80;;;18.76;80.59
37904;BME280;23738;50.422;18.758;2022-09-09T06:18:53;98327.59;;;18.89;80.61
37904;BME280;23738;50.422;18.758;2022-09-09T06:21:32;98333.28;;;18.97;80.37
37904;BME280;23738;50.422;18.758;2022-09-09T06:24:01;98326.66;;;19.07;80.44
37904;BME280;23738;50.422;18.758;2022-09-09T06:26:33;98323.25;;;19.25;80.26
37904;BME280;23738;50.422;18.758;2022-09-09T06:29:01;98320.62;;;19.35;80.07
37904;BME280;23738;50.422;18.758;2022-09-09T06:31:30;98326.87;;;19.48;80.09
37904;BME280;23738;50.422;18.758;2022-09-09T06:33:59;98329.61;;;19.61;79.87
37904;BME280;23738;50.422;18.758;2022-09-09T06:36:28;98331.23;;;19.62;79.59
37904;BME280;23738;50.422;18.758;2022-09-09T06:38:56;98327.50;;;19.73;79.71
37904;BME280;23738;50.422;18.758;2022-09-09T06:41:25;98325.16;;;19.86;79.37
37904;BME280;23738;50.422;18.758;2022-09-09T06:43:53;98327.05;;;19.94;79.26
37904;BME280;23738;50.422;18.758;2022-09-09T06:46:25;98323.02;;;20.04;79.18
37904;BME280;23738;50.422;18.758;2022-09-09T06:48:57;98326.52;;;20.12;79.05
37904;BME280;23738;50.422;18.758;2022-09-09T06:51:26;98332.17;;;20.28;78.86
37904;BME280;23738;50.422;18.758;2022-09-09T06:53:55;98330.61;;;20.45;78.73
37904;BME280;23738;50.422;18.758;2022-09-09T06:58:54;98326.88;;;20.74;77.86
37904;BME280;23738;50.422;18.758;2022-09-09T07:01:23;98321.77;;;20.82;77.63
37904;BME280;23738;50.422;18.758;2022-09-09T07:03:53;98319.88;;;20.88;77.44
37904;BME280;23738;50.422;18.758;2022-09-09T07:06:23;98317.98;;;20.96;77.09
37904;BME280;23738;50.422;18.758;2022-09-09T07:08:51;98313.42;;;20.99;76.73
37904;BME280;23738;50.422;18.758;2022-09-09T07:11:19;98314.45;;;21.08;76.66
37904;BME280;23738;50.422;18.758;2022-09-09T07:13:47;98316.62;;;21.04;76.56
37904;BME280;23738;50.422;18.758;2022-09-09T07:16:16;98322.52;;;21.18;76.58
37904;BME280;23738;50.422;18.758;2022-09-09T07:18:44;98325.18;;;21.28;76.04
37904;BME280;23738;50.422;18.758;2022-09-09T07:21:11;98321.66;;;21.35;76.00
37904;BME280;23738;50.422;18.758;2022-09-09T07:23:38;98315.42;;;21.50;75.65
37904;BME280;23738;50.422;18.758;2022-09-09T07:26:12;98310.82;;;21.61;75.41
37904;BME280;23738;50.422;18.758;2022-09-09T07:28:40;98317.20;;;21.72;75.12
37904;BME280;23738;50.422;18.758;2022-09-09T07:31:08;98316.34;;;21.85;75.04
37904;BME280;23738;50.422;18.758;2022-09-09T07:33:38;98318.93;;;22.05;74.79
37904;BME280;23738;50.422;18.758;2022-09-09T07:36:17;98317.80;;;22.16;74.30
37904;BME280;23738;50.422;18.758;2022-09-09T07:38:53;98322.58;;;22.24;74.18
37904;BME280;23738;50.422;18.758;2022-09-09T07:41:27;98325.97;;;22.40;74.08
37904;BME280;23738;50.422;18.758;2022-09-09T07:43:55;98327.27;;;22.45;73.90
37904;BME280;23738;50.422;18.758;2022-09-09T07:46:23;98330.21;;;22.48;73.67
37904;BME280;23738;50.422;18.758;2022-09-09T07:48:56;98331.16;;;22.65;73.31
37904;BME280;23738;50.422;18.758;2022-09-09T07:51:24;98333.73;;;22.80;73.06
37904;BME280;23738;50.422;18.758;2022-09-09T07:53:57;98336.56;;;22.94;72.67
37904;BME280;23738;50.422;18.758;2022-09-09T07:56:26;98333.33;;;22.95;72.21
37904;BME280;23738;50.422;18.758;2022-09-09T07:58:54;98329.46;;;23.06;72.27
37904;BME280;23738;50.422;18.758;2022-09-09T08:01:30;98333.61;;;23.22;71.87
37904;BME280;23738;50.422;18.758;2022-09-09T08:04:06;98341.52;;;23.37;71.55
37904;BME280;23738;50.422;18.758;2022-09-09T08:06:40;98338.45;;;23.46;71.38
37904;BME280;23738;50.422;18.758;2022-09-09T08:09:07;98346.03;;;23.42;70.60
37904;BME280;23738;50.422;18.758;2022-09-09T08:11:33;98340.44;;;23.38;70.57
37904;BME280;23738;50.422;18.758;2022-09-09T08:14:01;98350.09;;;23.39;70.46
37904;BME280;23738;50.422;18.758;2022-09-09T08:16:31;98359.77;;;23.43;70.54
37904;BME280;23738;50.422;18.758;2022-09-09T08:18:58;98355.19;;;23.43;70.47
37904;BME280;23738;50.422;18.758;2022-09-09T08:21:30;98349.23;;;23.46;70.23
37904;BME280;23738;50.422;18.758;2022-09-09T08:24:00;98346.23;;;23.50;69.96
37904;BME280;23738;50.422;18.758;2022-09-09T08:26:33;98346.78;;;23.50;69.85
37904;BME280;23738;50.422;18.758;2022-09-09T08:29:03;98349.72;;;23.53;69.52
37904;BME280;23738;50.422;18.758;2022-09-09T08:31:35;98350.76;;;23.55;68.88
37904;BME280;23738;50.422;18.758;2022-09-09T08:34:04;98347.02;;;23.53;68.74
37904;BME280;23738;50.422;18.758;2022-09-09T08:36:38;98350.28;;;23.50;68.77
37904;BME280;23738;50.422;18.758;2022-09-09T08:39:03;98357.09;;;23.40;68.00
37904;BME280;23738;50.422;18.758;2022-09-09T08:44:53;98349.44;;;23.26;67.39
37904;BME280;23738;50.422;18.758;2022-09-09T08:48:04;98349.70;;;23.27;67.27
37904;BME280;23738;50.422;18.758;2022-09-09T08:50:34;98353.10;;;23.38;67.30
37904;BME280;23738;50.422;18.758;2022-09-09T08:53:12;98358.91;;;23.50;66.90
37904;BME280;23738;50.422;18.758;2022-09-09T08:55:47;98362.95;;;23.47;66.66
37904;BME280;23738;50.422;18.758;2022-09-09T08:58:26;98359.23;;;23.43;66.81
37904;BME280;23738;50.422;18.758;2022-09-09T09:12:53;98361.25;;;23.06;66.61
37904;BME280;23738;50.422;18.758;2022-09-09T09:15:23;98361.20;;;23.09;67.11
37904;BME280;23738;50.422;18.758;2022-09-09T09:17:50;98361.78;;;23.06;67.11
37904;BME280;23738;50.422;18.758;2022-09-09T09:20:19;98362.33;;;23.05;67.03
37904;BME280;23738;50.422;18.758;2022-09-09T09:22:50;98363.41;;;23.04;66.48
37904;BME280;23738;50.422;18.758;2022-09-09T09:25:27;98359.91;;;23.04;66.32
37904;BME280;23738;50.422;18.758;2022-09-09T09:28:03;98361.74;;;23.08;66.29
37904;BME280;23738;50.422;18.758;2022-09-09T09:33:52;98359.93;;;23.01;65.51
37904;BME280;23738;50.422;18.758;2022-09-09T09:36:33;98357.23;;;23.01;65.81
37904;BME280;23738;50.422;18.758;2022-09-09T09:38:56;98353.18;;;23.04;65.74
37904;BME280;23738;50.422;18.758;2022-09-09T09:41:31;98349.94;;;23.04;65.65
37904;BME280;23738;50.422;18.758;2022-09-09T09:43:59;98355.61;;;23.03;65.80
37904;BME280;23738;50.422;18.758;2022-09-09T09:46:27;98352.36;;;23.06;65.85
37904;BME280;23738;50.422;18.758;2022-09-09T09:49:01;98357.20;;;23.06;65.08
37904;BME280;23738;50.422;18.758;2022-09-09T09:51:30;98360.18;;;23.05;64.96
37904;BME280;23738;50.422;18.758;2022-09-09T09:56:49;98365.28;;;23.06;65.28
37904;BME280;23738;50.422;18.758;2022-09-09T10:04:48;98362.91;;;23.26;65.06
37904;BME280;23738;50.422;18.758;2022-09-09T10:07:22;98356.84;;;23.39;64.60
37904;BME280;23738;50.422;18.758;2022-09-09T10:09:53;98356.50;;;23.48;64.18
37904;BME280;23738;50.422;18.758;2022-09-09T10:15:31;98352.80;;;23.65;63.80
37904;BME280;23738;50.422;18.758;2022-09-09T10:20:54;98360.64;;;24.04;63.16
37904;BME280;23738;50.422;18.758;2022-09-09T10:26:44;98368.38;;;24.67;63.09
37904;BME280;23738;50.422;18.758;2022-09-09T10:35:12;98369.83;;;24.78;62.46
37904;BME280;23738;50.422;18.758;2022-09-09T10:43:30;98385.71;;;24.99;61.24
37904;BME280;23738;50.422;18.758;2022-09-09T10:46:25;98386.93;;;25.06;61.25
37904;BME280;23738;50.422;18.758;2022-09-09T10:57:29;98380.23;;;25.77;59.16
37904;BME280;23738;50.422;18.758;2022-09-09T11:00:03;98375.13;;;25.76;59.46
37904;BME280;23738;50.422;18.758;2022-09-09T11:02:33;98384.04;;;25.76;58.79
37904;BME280;23738;50.422;18.758;2022-09-09T11:07:55;98384.09;;;25.60;57.89
37904;BME280;23738;50.422;18.758;2022-09-09T11:13:13;98388.51;;;25.95;57.71
37904;BME280;23738;50.422;18.758;2022-09-09T11:16:03;98385.94;;;26.14;57.23
37904;BME280;23738;50.422;18.758;2022-09-09T11:18:28;98375.61;;;26.16;57.42
37904;BME280;23738;50.422;18.758;2022-09-09T11:20:58;98374.09;;;26.24;57.98
37904;BME280;23738;50.422;18.758;2022-09-09T11:23:39;98376.98;;;26.41;57.36
37904;BME280;23738;50.422;18.758;2022-09-09T11:26:06;98377.92;;;26.34;56.31
37904;BME280;23738;50.422;18.758;2022-09-09T11:40:34;98384.91;;;25.58;55.62
37904;BME280;23738;50.422;18.758;2022-09-09T11:42:40;98383.73;;;25.48;55.67
37904;BME280;23738;50.422;18.758;2022-09-09T11:45:23;98386.05;;;25.41;55.97
37904;BME280;23738;50.422;18.758;2022-09-09T11:47:56;98383.48;;;25.33;55.42
37904;BME280;23738;50.422;18.758;2022-09-09T11:53:16;98380.53;;;25.02;54.96
37904;BME280;23738;50.422;18.758;2022-09-09T11:55:40;98377.91;;;25.13;55.18
37904;BME280;23738;50.422;18.758;2022-09-09T12:00:43;98385.99;;;25.60;55.12
37904;BME280;23738;50.422;18.758;2022-09-09T12:09:06;98383.60;;;25.97;54.32
37904;BME280;23738;50.422;18.758;2022-09-09T12:11:33;98380.59;;;25.98;53.48
37904;BME280;23738;50.422;18.758;2022-09-09T12:14:00;98379.17;;;25.76;53.70
37904;BME280;23738;50.422;18.758;2022-09-09T12:16:32;98380.77;;;25.63;53.92
37904;BME280;23738;50.422;18.758;2022-09-09T12:19:15;98380.70;;;25.52;53.96
37904;BME280;23738;50.422;18.758;2022-09-09T12:24:40;98371.17;;;25.41;54.04
37904;BME280;23738;50.422;18.758;2022-09-09T12:27:17;98371.79;;;25.38;54.27
37904;BME280;23738;50.422;18.758;2022-09-09T12:30:07;98371.66;;;25.59;54.50
37904;BME280;23738;50.422;18.758;2022-09-09T12:32:35;98378.26;;;25.80;54.55
37904;BME280;23738;50.422;18.758;2022-09-09T12:35:20;98377.16;;;25.81;54.06
37904;BME280;23738;50.422;18.758;2022-09-09T12:37:53;98372.16;;;25.75;53.42
37904;BME280;23738;50.422;18.758;2022-09-09T12:40:26;98373.00;;;25.73;53.36
37904;BME280;23738;50.422;18.758;2022-09-09T12:42:53;98380.06;;;25.71;53.35
37904;BME280;23738;50.422;18.758;2022-09-09T12:45:22;98390.17;;;25.79;53.53
37904;BME280;23738;50.422;18.758;2022-09-09T12:50:34;98391.77;;;26.08;52.80
37904;BME280;23738;50.422;18.758;2022-09-09T12:53:10;98393.09;;;26.21;51.90
37904;BME280;23738;50.422;18.758;2022-09-09T12:55:59;98390.06;;;26.37;51.84
37904;BME280;23738;50.422;18.758;2022-09-09T12:58:30;98386.08;;;26.45;51.72
37904;BME280;23738;50.422;18.758;2022-09-09T13:01:01;98385.59;;;26.54;51.66
37904;BME280;23738;50.422;18.758;2022-09-09T13:03:31;98387.69;;;26.68;51.59
37904;BME280;23738;50.422;18.758;2022-09-09T13:06:10;98384.73;;;26.67;51.08
37904;BME280;23738;50.422;18.758;2022-09-09T13:08:37;98383.88;;;26.70;51.01
37904;BME280;23738;50.422;18.758;2022-09-09T13:11:13;98379.14;;;26.64;50.82
37904;BME280;23738;50.422;18.758;2022-09-09T13:13:40;98375.27;;;26.56;50.73
37904;BME280;23738;50.422;18.758;2022-09-09T13:16:22;98375.94;;;26.62;50.83
37904;BME280;23738;50.422;18.758;2022-09-09T13:18:50;98372.05;;;26.54;50.72
37904;BME280;23738;50.422;18.758;2022-09-09T13:21:17;98366.27;;;26.47;50.02
37904;BME280;23738;50.422;18.758;2022-09-09T13:23:49;98360.18;;;26.42;50.81
37904;BME280;23738;50.422;18.758;2022-09-09T13:26:24;98360.45;;;26.29;50.35
37904;BME280;23738;50.422;18.758;2022-09-09T13:28:53;98347.99;;;26.17;50.51
37904;BME280;23738;50.422;18.758;2022-09-09T13:31:33;98348.84;;;26.15;50.42
37904;BME280;23738;50.422;18.758;2022-09-09T13:33:55;98344.95;;;26.18;50.59
37904;BME280;23738;50.422;18.758;2022-09-09T13:36:29;98340.17;;;26.15;50.42
37904;BME280;23738;50.422;18.758;2022-09-09T13:38:58;98335.05;;;26.14;50.61
37904;BME280;23738;50.422;18.758;2022-09-09T13:41:33;98336.03;;;26.07;49.86
37904;BME280;23738;50.422;18.758;2022-09-09T13:44:02;98331.94;;;25.96;49.80
37904;BME280;23738;50.422;18.758;2022-09-09T13:51:45;98327.39;;;25.69;50.89
37904;BME280;23738;50.422;18.758;2022-09-09T13:54:16;98328.78;;;25.66;50.57
37904;BME280;23738;50.422;18.758;2022-09-09T13:56:43;98324.90;;;25.56;49.79
37904;BME280;23738;50.422;18.758;2022-09-09T13:59:13;98316.39;;;25.49;50.30
37904;BME280;23738;50.422;18.758;2022-09-09T14:01:40;98320.81;;;25.45;50.97
37904;BME280;23738;50.422;18.758;2022-09-09T14:04:06;98317.76;;;25.35;50.83
37904;BME280;23738;50.422;18.758;2022-09-09T14:06:37;98320.21;;;25.21;50.86
37904;BME280;23738;50.422;18.758;2022-09-09T14:09:07;98323.94;;;25.08;51.06
37904;BME280;23738;50.422;18.758;2022-09-09T14:11:33;98314.29;;;25.05;51.51
37904;BME280;23738;50.422;18.758;2022-09-09T14:13:59;98318.34;;;25.05;51.87
37904;BME280;23738;50.422;18.758;2022-09-09T14:16:26;98307.57;;;25.02;52.03
37904;BME280;23738;50.422;18.758;2022-09-09T14:18:53;98306.95;;;24.92;51.75
37904;BME280;23738;50.422;18.758;2022-09-09T14:21:21;98305.30;;;24.93;52.14
37904;BME280;23738;50.422;18.758;2022-09-09T14:23:47;98304.53;;;24.90;52.32
37904;BME280;23738;50.422;18.758;2022-09-09T14:26:13;98307.53;;;24.89;52.59
37904;BME280;23738;50.422;18.758;2022-09-09T14:28:39;98305.41;;;24.86;52.94
37904;BME280;23738;50.422;18.758;2022-09-09T14:31:06;98313.88;;;24.82;53.16
37904;BME280;23738;50.422;18.758;2022-09-09T14:33:32;98308.80;;;24.77;53.20
37904;BME280;23738;50.422;18.758;2022-09-09T14:36:00;98309.89;;;24.76;53.43
37904;BME280;23738;50.422;18.758;2022-09-09T14:38:29;98314.00;;;24.74;53.51
37904;BME280;23738;50.422;18.758;2022-09-09T14:40:59;98312.98;;;24.70;53.60
37904;BME280;23738;50.422;18.758;2022-09-09T14:43:29;98304.49;;;24.60;53.20
37904;BME280;23738;50.422;18.758;2022-09-09T14:45:56;98310.09;;;24.50;53.42
37904;BME280;23738;50.422;18.758;2022-09-09T14:48:22;98302.75;;;24.34;53.05
37904;BME280;23738;50.422;18.758;2022-09-09T14:50:48;98301.03;;;24.25;53.29
37904;BME280;23738;50.422;18.758;2022-09-09T14:53:16;98301.32;;;24.23;53.67
37904;BME280;23738;50.422;18.758;2022-09-09T14:55:42;98297.56;;;24.22;53.88
37904;BME280;23738;50.422;18.758;2022-09-09T14:58:07;98299.80;;;24.15;54.13
37904;BME280;23738;50.422;18.758;2022-09-09T15:00:33;98307.66;;;24.11;54.33
37904;BME280;23738;50.422;18.758;2022-09-09T15:02:59;98313.69;;;24.06;53.52
37904;BME280;23738;50.422;18.758;2022-09-09T15:05:25;98308.15;;;23.97;53.75
37904;BME280;23738;50.422;18.758;2022-09-09T15:07:50;98306.63;;;23.91;54.19
37904;BME280;23738;50.422;18.758;2022-09-09T15:10:16;98302.19;;;23.79;54.41
37904;BME280;23738;50.422;18.758;2022-09-09T15:12:43;98303.44;;;23.68;54.71